Startpagina
METAR-TAF:

METAR-TAF

Vliegvelden :

Funafuti, Tuvalu

breedte: 08-31S, lengte: 179-13E, hoogte: 1 m

Actueel weer

Dit bericht is 2 uur en het 6 minuten geleden gemaakt, om 07:00 UTC
Wind 1 kt uit variabele richting
Temperatuur 29°C
Vochtigheid 79%
Druk 1008 hPa
Zicht 10 km of meer
Weinig wolken op 1800 ft, Stapelwolken.
Gebroken wolken op 10000 ft
buien in de omgeving

METAR: NGFU 190700Z VRB01KT 9999 VCSH FEW018TCU BKN100 29/25 Q1008

Tijdstip: 21:06 (09:06 UTC)

Verwachting

Dit bericht is 3 uur en het 49 minuten geleden gemaakt, om 05:17 UTC
Verwachting geldig van 19 om 06 UTC tot 20 om 06 UTC
Wind 8 kt uit het oosten
Zicht 10 km of meer
Weinig wolken op 1800 ft
Verspreide wolken op 4500 ft
Gebroken wolken op 10000 ft
Kans 30% :
Tijdelijke
van 19 om 15 UTC tot 20 om 06 UTC
Zicht: 3000 m
Weinig wolken op 1700 ft, Cumulonimbus.
onweer, regen

TAF: NGFU 190517Z 1906/2006 09008KT 9999 FEW018 SCT045 BKN100 PROB30 TEMPO 1915/2006 3000 TSRA FEW017CB

Waarnemingen en weersverwachtingen van meer dan 4000 vliegvelden (METAR en TAF).

De beschikbare stations zijn de gele en rode punten op de kaart.

Ga met uw muis naar het station om de naam te zien.

Klik dan om waarnemingen en weersverwachtingen te zien.

kaart wijzigen: klik op de groene knoppen met een zwart kruis om in te zoomen, op de groene knop met een streepje om uit te zoomen of op de groene pijlen voor aangrenzende kaarten.


METAR-TAF: